KOI weather

Kirkwall Airport
Orkney Islands, Scotland, United Kingdom

Public forecast

Using degrees Celsius for public forecast. Weather courtesy of forecast.io.

METAR (pilot weather report)

Retrieved 2019/03/25 13:20 UTC (8 minutes ago):

EGPA 251320Z 30018KT 9999 -RA FEW018 SCT035 08/03 Q1029

TAF (pilot weather forecast)

Closest forecast is RAF Lossiemouth, 76.4 nm (141.6 km) S. Retrieved 2019/03/25 09:57 UTC (4 hours ago):

TAF TAF EGQS 250734Z 2509/2603 29013KT 9999 FEW024 SCT045 PROB30 TEMPO 2509/2511 -SHRA SCT022